EHAM/AMS METAR and TAF weather

Enter ICAO airport designator
Station Type Date Time Source
EHAM METAR 2019/10/19 07:25 UTC NOAA

EHAM 190725Z 17013KT 150V210 9999 -RA FEW007 12/11 Q1001 TEMPO RA BKN014


Station Type Date Time Source
EHAM Decoded METAR 2019/10/19 07:25 UTC NOAA

Amsterdam Airport Schiphol, Netherlands (EHAM) 52-18N 004-46E -2M
Oct 19, 2019 - 03:25 AM EDT / 2019.10.19 0725 UTC
Wind: from the S (170 degrees) at 15 MPH (13 KT) (direction variable):0
Visibility: greater than 7 mile(s):0
Sky conditions: mostly clear
Weather: light rain
Temperature: 53 F (12 C)
Dew Point: 51 F (11 C)
Relative Humidity: 93%
Pressure (altimeter): 29.56 in. Hg (1001 hPa)
ob: EHAM 190725Z 17013KT 150V210 9999 -RA FEW007 12/11 Q1001 TEMPO RA BKN014
cycle: 7

Station Type Date Time Source
EHAM TAF 2019/10/19 06:27 UTC NOAA

TAF TAF EHAM 190432Z 1906/2012 19012KT 9999 FEW030 PROB30
TEMPO 1906/1919 6000 SHRA RA FEW025CB BKN030
BECMG 1916/1919 19006KT PROB30 2002/2009 5000 BR MIFG
BECMG 2007/2010 VRB03KT

Example: see airport list